Time;durP1;ratioP1;P1;durP2;ratioP2;P2;SDS_P1;SDS_P2;PMS_P1;PMS_P2;Temp;Humidity;BMP_temperature;BMP_pressure;BME280_temperature;BME280_humidity;BME280_pressure;Samples;Min_cycle;Max_cycle;Signal;HPM_P1;HPM_P2
2021/04/17 00:02:11;;;;;;;25.02;19.82;;;;;;;2.14;85.42;96704.93;1752907;81;21122;-76
2021/04/17 00:04:39;;;;;;;24.45;18.23;;;;;;;2.14;85.49;96703.65;1751106;81;21128;-76
2021/04/17 00:07:08;;;;;;;18.77;14.23;;;;;;;2.16;85.44;96701.77;1755773;81;21094;-76
2021/04/17 00:09:34;;;;;;;23.47;18.37;;;;;;;2.17;85.34;96700.84;1751421;81;21373;-76
2021/04/17 00:12:04;;;;;;;25.75;21.00;;;;;;;2.19;85.36;96695.58;1753171;81;21205;-76
2021/04/17 00:14:35;;;;;;;20.60;17.32;;;;;;;2.23;85.45;96694.40;1754166;81;21138;-75
2021/04/17 00:17:02;;;;;;;22.93;19.20;;;;;;;2.24;85.35;96696.02;1754831;81;21089;-76
2021/04/17 00:19:28;;;;;;;25.40;20.88;;;;;;;2.21;85.31;96695.80;1750710;81;21355;-78
2021/04/17 00:21:54;;;;;;;24.43;17.55;;;;;;;2.18;85.31;96701.18;1749294;81;21110;-78
2021/04/17 00:24:20;;;;;;;22.55;18.87;;;;;;;2.13;85.21;96692.23;1754413;81;21112;-76
2021/04/17 00:26:46;;;;;;;34.33;24.27;;;;;;;2.09;85.26;96689.89;1755042;81;21315;-76
2021/04/17 00:29:12;;;;;;;26.57;22.80;;;;;;;2.08;85.22;96697.23;1755180;81;21093;-76
2021/04/17 00:31:38;;;;;;;35.98;25.27;;;;;;;2.10;85.36;96688.14;1752694;81;21315;-76
2021/04/17 00:34:05;;;;;;;23.62;17.15;;;;;;;2.10;85.40;96685.58;1756836;81;21247;-76
2021/04/17 00:36:31;;;;;;;23.55;16.75;;;;;;;2.06;85.37;96688.86;1755093;81;21427;-77
2021/04/17 00:38:57;;;;;;;27.10;21.23;;;;;;;2.05;85.39;96687.70;1754592;81;21104;-78
2021/04/17 00:41:23;;;;;;;22.50;16.65;;;;;;;2.06;85.40;96693.17;1750225;80;21090;-78
2021/04/17 00:43:50;;;;;;;19.98;16.12;;;;;;;2.08;85.35;96693.86;1760373;80;21091;-78
2021/04/17 00:46:16;;;;;;;21.70;17.52;;;;;;;2.11;85.43;96687.20;1763050;80;21862;-78
2021/04/17 00:48:42;;;;;;;19.98;17.45;;;;;;;2.14;85.43;96689.55;1768254;80;21117;-78
2021/04/17 00:51:10;;;;;;;22.52;17.85;;;;;;;2.13;85.43;96693.52;1761151;80;21103;-76
2021/04/17 00:53:37;;;;;;;22.20;16.57;;;;;;;2.08;85.37;96696.42;1753800;80;21080;-76
2021/04/17 00:56:05;;;;;;;20.62;15.20;;;;;;;2.06;85.45;96693.17;1765070;80;21476;-78
2021/04/17 00:58:32;;;;;;;20.77;16.32;;;;;;;2.00;85.45;96685.98;1765475;80;21063;-78
2021/04/17 01:00:58;;;;;;;20.60;15.88;;;;;;;2.08;85.43;96698.98;1766883;80;21322;-78
2021/04/17 01:03:46;;;;;;;22.07;16.67;;;;;;;2.04;85.34;96691.20;1762436;80;21132;-78
2021/04/17 01:06:26;;;;;;;21.10;18.82;;;;;;;2.11;85.50;96693.61;1764461;80;21127;-76
2021/04/17 01:09:11;;;;;;;22.52;19.62;;;;;;;2.19;85.54;96681.48;1809762;76;23071;-78
2021/04/17 01:11:45;;;;;;;20.40;16.35;;;;;;;2.18;85.45;96694.77;1772920;78;21438;-79
2021/04/17 01:14:14;;;;;;;22.00;17.00;;;;;;;2.16;85.46;96686.39;1812945;78;21092;-78
2021/04/17 01:16:44;;;;;;;17.67;14.40;;;;;;;2.17;85.39;96687.20;1776089;79;21108;-78
2021/04/17 01:19:13;;;;;;;17.67;13.85;;;;;;;2.14;85.22;96688.27;1721089;81;21115;-78
2021/04/17 01:21:40;;;;;;;18.75;16.05;;;;;;;2.13;85.24;96684.55;1755638;81;21129;-78
2021/04/17 01:24:09;;;;;;;19.27;16.17;;;;;;;2.15;85.27;96686.52;1748639;81;21094;-78
2021/04/17 01:26:35;;;;;;;16.55;13.80;;;;;;;2.15;85.27;96690.36;1750983;81;21240;-78
2021/04/17 01:29:02;;;;;;;16.48;13.83;;;;;;;2.10;85.22;96685.11;1720114;81;21180;-78
2021/04/17 01:31:31;;;;;;;16.00;12.93;;;;;;;2.08;85.35;96688.73;1748154;81;21102;-78
2021/04/17 01:33:58;;;;;;;13.03;11.12;;;;;;;2.10;85.26;96691.98;1746695;81;21102;-78
2021/04/17 01:36:26;;;;;;;12.20;10.35;;;;;;;2.10;85.20;96697.11;1716828;81;21132;-78
2021/04/17 01:38:55;;;;;;;12.58;10.18;;;;;;;2.08;85.26;96690.83;1750473;81;21101;-78
2021/04/17 01:41:49;;;;;;;15.08;13.55;;;;;;;2.10;85.29;96690.23;1744963;81;21119;-78
2021/04/17 01:44:21;;;;;;;13.03;10.95;;;;;;;2.09;85.28;96689.89;1748664;81;21243;-79
2021/04/17 01:46:50;;;;;;;14.07;12.58;;;;;;;2.04;85.33;96693.30;1732496;81;21149;-79
2021/04/17 01:49:17;;;;;;;12.30;10.30;;;;;;;2.01;85.37;96688.42;1750888;81;21120;-80
2021/04/17 01:51:44;;;;;;;13.00;11.15;;;;;;;2.04;85.41;96687.36;1704596;81;21090;-79
2021/04/17 01:54:26;;;;;;;13.32;10.98;;;;;;;2.02;85.34;96689.23;1746507;81;21121;-79
2021/04/17 01:56:55;;;;;;;10.70;8.90;;;;;;;2.03;85.37;96689.58;1744869;81;21183;-79
2021/04/17 01:59:21;;;;;;;12.00;10.70;;;;;;;2.05;85.38;96693.64;1747268;81;21121;-79
2021/04/17 02:01:48;;;;;;;14.85;13.45;;;;;;;2.08;85.44;96690.02;1748181;81;21112;-79
2021/04/17 02:04:13;;;;;;;13.93;12.53;;;;;;;2.09;85.49;96695.48;1747473;81;21255;-79
2021/04/17 02:06:39;;;;;;;11.43;10.20;;;;;;;2.05;85.37;96688.98;1749248;81;21435;-79
2021/04/17 02:09:07;;;;;;;10.72;9.63;;;;;;;2.02;85.32;96689.23;1736652;81;21126;-79
2021/04/17 02:11:33;;;;;;;10.58;9.23;;;;;;;2.01;85.32;96690.98;1729170;82;21165;-79
2021/04/17 02:14:00;;;;;;;10.08;9.08;;;;;;;2.02;85.25;96690.52;1740542;82;21146;-79
2021/04/17 02:17:15;;;;;;;11.00;9.95;;;;;;;2.03;85.30;96688.30;1729441;82;21093;-79
2021/04/17 02:20:04;;;;;;;10.28;9.28;;;;;;;2.03;85.32;96694.23;1728852;81;21321;-79
2021/04/17 02:22:31;;;;;;;14.35;12.93;;;;;;;2.05;85.38;96689.80;1723499;82;21138;-79
2021/04/17 02:24:57;;;;;;;10.03;8.85;;;;;;;2.01;85.43;96688.42;1707738;82;21083;-79
2021/04/17 02:27:23;;;;;;;9.33;8.43;;;;;;;2.02;85.29;96682.36;1748053;81;21260;-79
2021/04/17 02:29:56;;;;;;;9.45;8.18;;;;;;;2.04;85.31;96688.64;1741945;81;21224;-79
2021/04/17 02:32:22;;;;;;;11.60;10.50;;;;;;;2.04;85.23;96681.77;1756697;80;21407;-79
2021/04/17 02:34:48;;;;;;;12.80;11.48;;;;;;;2.08;85.26;96681.05;1766493;80;22452;-77
2021/04/17 02:37:14;;;;;;;13.53;12.20;;;;;;;2.06;85.25;96681.17;1737036;81;21432;-77
2021/04/17 02:39:41;;;;;;;13.95;12.65;;;;;;;2.06;85.27;96677.80;1724845;81;21338;-77
2021/04/17 02:42:08;;;;;;;9.23;8.35;;;;;;;2.06;85.27;96685.02;1734546;81;21114;-77
2021/04/17 02:44:36;;;;;;;7.67;6.97;;;;;;;2.06;85.18;96687.58;1727859;81;21252;-77
2021/04/17 02:47:02;;;;;;;9.23;8.23;;;;;;;2.06;85.11;96678.61;1761522;80;21101;-77
2021/04/17 02:49:27;;;;;;;9.30;8.40;;;;;;;2.06;85.08;96677.33;1747114;81;21116;-77
2021/04/17 02:51:54;;;;;;;9.23;8.40;;;;;;;2.08;85.11;96681.05;1707563;81;21251;-77
2021/04/17 02:54:20;;;;;;;8.83;7.83;;;;;;;2.07;85.13;96677.67;1761484;80;21106;-77
2021/04/17 02:56:46;;;;;;;8.73;7.92;;;;;;;2.10;85.31;96677.89;1772921;80;21614;-77
2021/04/17 02:59:11;;;;;;;8.18;7.37;;;;;;;2.10;85.20;96677.42;1774011;80;21215;-77
2021/04/17 03:01:38;;;;;;;9.13;8.33;;;;;;;2.10;85.11;96675.33;1763267;80;21233;-77
2021/04/17 03:04:04;;;;;;;8.80;8.00;;;;;;;2.09;84.98;96678.36;1757062;80;21105;-77
2021/04/17 03:06:30;;;;;;;9.58;8.58;;;;;;;2.10;85.08;96671.01;1767264;80;21153;-77
2021/04/17 03:08:56;;;;;;;10.82;9.83;;;;;;;2.10;85.00;96673.58;1752938;80;21456;-77
2021/04/17 03:11:22;;;;;;;8.65;7.83;;;;;;;2.08;85.05;96676.73;1745976;81;21141;-77
2021/04/17 03:13:48;;;;;;;8.33;7.45;;;;;;;2.05;85.00;96677.45;1743874;81;21140;-77
2021/04/17 03:16:15;;;;;;;9.03;6.80;;;;;;;2.01;85.06;96677.36;1742279;81;21251;-77
2021/04/17 03:18:41;;;;;;;8.93;8.13;;;;;;;1.99;85.05;96682.61;1745121;81;21085;-77
2021/04/17 03:21:07;;;;;;;8.10;7.30;;;;;;;2.01;85.17;96682.48;1723161;81;21404;-77
2021/04/17 03:23:33;;;;;;;7.55;6.70;;;;;;;2.03;85.15;96680.14;1746427;81;21093;-77
2021/04/17 03:25:59;;;;;;;9.63;7.15;;;;;;;2.08;85.17;96683.61;1744336;81;21236;-77
2021/04/17 03:28:25;;;;;;;9.60;8.63;;;;;;;2.11;85.05;96679.52;1748279;81;21093;-77
2021/04/17 03:30:51;;;;;;;11.45;8.05;;;;;;;2.11;85.05;96679.52;1740946;81;21145;-77
2021/04/17 03:33:17;;;;;;;9.85;8.00;;;;;;;2.11;85.24;96676.95;1751982;81;21101;-77
2021/04/17 03:35:43;;;;;;;7.55;6.80;;;;;;;2.10;85.17;96681.73;1746562;81;21164;-77
2021/04/17 03:38:09;;;;;;;8.25;7.40;;;;;;;2.11;85.16;96683.36;1745362;81;22281;-77
2021/04/17 03:40:35;;;;;;;7.17;6.42;;;;;;;2.13;85.08;96684.08;1744756;81;21419;-77
2021/04/17 03:43:01;;;;;;;7.35;6.58;;;;;;;2.12;84.96;96685.48;1746356;81;21070;-79
2021/04/17 03:45:29;;;;;;;7.50;6.70;;;;;;;2.11;85.09;96688.48;1742736;81;21121;-79
2021/04/17 03:47:55;;;;;;;7.53;6.72;;;;;;;2.08;85.08;96688.27;1746701;81;21157;-79
2021/04/17 03:50:21;;;;;;;8.08;7.28;;;;;;;2.03;85.08;96686.55;1745821;81;21113;-79
2021/04/17 03:52:47;;;;;;;7.95;7.22;;;;;;;2.01;85.12;96687.61;1733355;82;21437;-79
2021/04/17 03:55:14;;;;;;;9.60;8.13;;;;;;;2.01;85.14;96688.42;1756396;81;21332;-79
2021/04/17 03:57:41;;;;;;;8.23;7.35;;;;;;;2.02;85.07;96688.77;1720104;82;21112;-79
2021/04/17 04:00:09;;;;;;;8.45;7.60;;;;;;;2.03;85.09;96687.02;1745454;80;21105;-79
2021/04/17 04:02:35;;;;;;;9.80;8.90;;;;;;;2.07;85.09;96690.48;1718930;82;21115;-79
2021/04/17 04:05:03;;;;;;;11.00;8.88;;;;;;;2.06;85.02;96693.17;1727325;82;21496;-79
2021/04/17 04:07:29;;;;;;;10.05;8.95;;;;;;;2.06;85.18;96690.61;1753602;80;21304;-79
2021/04/17 04:09:55;;;;;;;13.00;11.70;;;;;;;2.08;85.22;96690.83;1767876;80;21110;-79
2021/04/17 04:12:21;;;;;;;12.00;10.58;;;;;;;2.06;85.16;96686.77;1747062;81;21147;-79
2021/04/17 04:14:47;;;;;;;10.23;9.25;;;;;;;2.05;85.07;96696.20;1737871;81;21109;-79
2021/04/17 04:17:13;;;;;;;11.10;10.15;;;;;;;2.02;85.07;96699.02;1733115;81;21114;-79
2021/04/17 04:19:39;;;;;;;10.85;9.93;;;;;;;2.03;85.04;96698.55;1730077;81;21105;-79
2021/04/17 04:22:05;;;;;;;13.50;12.10;;;;;;;2.05;85.17;96692.36;1719033;81;21235;-79
2021/04/17 04:24:31;;;;;;;13.25;11.95;;;;;;;2.10;85.25;96699.67;1735138;81;21322;-77
2021/04/17 04:26:57;;;;;;;13.03;11.70;;;;;;;2.09;85.13;96693.73;1730719;81;21216;-79
2021/04/17 04:29:23;;;;;;;11.73;10.63;;;;;;;2.10;85.18;96699.20;1738740;81;21605;-79
2021/04/17 04:31:49;;;;;;;10.58;9.48;;;;;;;2.13;85.14;96699.46;1734993;81;21089;-79
2021/04/17 04:34:15;;;;;;;11.88;10.70;;;;;;;2.14;85.01;96702.84;1726747;81;21109;-79
2021/04/17 04:36:41;;;;;;;12.82;10.65;;;;;;;2.15;85.10;96702.71;1733646;81;21352;-79
2021/04/17 04:39:07;;;;;;;14.23;12.78;;;;;;;2.20;85.08;96705.72;1722614;81;21081;-79
2021/04/17 04:41:35;;;;;;;15.93;14.33;;;;;;;2.24;85.12;96696.02;1729390;81;21121;-79
2021/04/17 04:44:04;;;;;;;16.82;15.18;;;;;;;2.25;85.04;96699.74;1733076;81;21354;-75
2021/04/17 04:46:32;;;;;;;13.65;12.30;;;;;;;2.20;84.96;96692.89;1717684;81;21109;-77
2021/04/17 04:48:58;;;;;;;13.85;11.43;;;;;;;2.13;84.87;96697.36;1737247;81;21153;-77
2021/04/17 04:51:24;;;;;;;13.22;11.75;;;;;;;2.12;84.97;96699.11;1735032;81;21431;-77
2021/04/17 04:53:50;;;;;;;12.20;10.90;;;;;;;2.15;84.93;96700.62;1738350;81;21247;-77
2021/04/17 04:56:16;;;;;;;15.38;13.88;;;;;;;2.16;84.92;96702.24;1730054;81;21157;-77
2021/04/17 04:58:42;;;;;;;16.73;14.75;;;;;;;2.17;84.87;96698.27;1770900;80;21101;-77
2021/04/17 05:01:08;;;;;;;20.55;16.57;;;;;;;2.20;84.93;96698.02;1739832;81;21149;-77
2021/04/17 05:03:33;;;;;;;20.35;18.23;;;;;;;2.20;84.90;96695.45;1746514;81;21192;-77
2021/04/17 05:05:59;;;;;;;15.85;12.88;;;;;;;2.18;84.97;96702.46;1743662;81;21118;-77
2021/04/17 05:08:25;;;;;;;11.93;10.68;;;;;;;2.16;84.98;96706.90;1752033;79;21232;-79
2021/04/17 05:10:52;;;;;;;15.98;14.07;;;;;;;2.17;84.90;96705.97;1768097;79;21239;-79
2021/04/17 05:13:18;;;;;;;20.08;17.37;;;;;;;2.20;84.85;96702.34;1736501;82;21087;-79
2021/04/17 05:15:44;;;;;;;16.32;14.60;;;;;;;2.24;85.04;96702.44;1762617;80;21132;-79
2021/04/17 05:18:10;;;;;;;21.42;19.42;;;;;;;2.28;84.97;96696.95;1767356;80;21423;-79
2021/04/17 05:20:36;;;;;;;28.15;25.32;;;;;;;2.31;84.99;96694.61;1742402;80;21140;-79
2021/04/17 05:23:02;;;;;;;37.20;33.88;;;;;;;2.34;84.92;96696.92;1737372;80;21111;-79
2021/04/17 05:25:28;;;;;;;21.12;18.87;;;;;;;2.37;84.86;96696.67;1738992;80;21323;-79
2021/04/17 05:27:54;;;;;;;25.43;18.82;;;;;;;2.40;84.78;96697.23;1739385;80;21116;-79
2021/04/17 05:30:22;;;;;;;17.80;14.95;;;;;;;2.45;84.67;96702.48;1752893;80;21102;-77
2021/04/17 05:32:48;;;;;;;18.77;16.82;;;;;;;2.52;84.68;96702.33;1736732;81;21133;-77
2021/04/17 05:35:14;;;;;;;20.95;18.37;;;;;;;2.59;84.65;96706.82;1726537;81;21105;-77
2021/04/17 05:37:40;;;;;;;21.62;14.98;;;;;;;2.65;84.58;96707.63;1699075;82;21115;-79
2021/04/17 05:40:08;;;;;;;17.40;15.15;;;;;;;2.63;84.30;96706.13;1698493;82;21152;-80
2021/04/17 05:42:34;;;;;;;21.70;19.40;;;;;;;2.62;84.41;96703.22;1768035;79;21239;-78
2021/04/17 05:45:00;;;;;;;17.23;15.50;;;;;;;2.61;84.10;96705.44;1706704;83;21305;-79
2021/04/17 05:47:25;;;;;;;15.60;14.00;;;;;;;2.62;84.12;96702.75;1763493;80;21508;-78
2021/04/17 05:49:51;;;;;;;16.65;14.95;;;;;;;2.67;84.18;96712.16;1765191;80;21073;-77
2021/04/17 05:52:18;;;;;;;11.00;9.65;;;;;;;2.69;84.03;96705.62;1753331;80;21091;-79
2021/04/17 05:54:43;;;;;;;13.22;11.20;;;;;;;2.68;83.92;96704.80;1754874;80;21078;-80
2021/04/17 05:57:10;;;;;;;13.25;11.85;;;;;;;2.62;83.78;96708.34;1759720;80;21088;-79
2021/04/17 05:59:36;;;;;;;16.00;13.55;;;;;;;2.59;83.90;96709.86;1761979;80;21081;-79
2021/04/17 06:02:02;;;;;;;16.35;14.43;;;;;;;2.61;84.08;96704.97;1757510;80;21062;-80
2021/04/17 06:04:28;;;;;;;16.80;15.00;;;;;;;2.73;84.15;96707.45;1750516;80;21061;-80
2021/04/17 06:06:54;;;;;;;15.08;12.98;;;;;;;2.78;83.85;96704.88;1758153;80;21093;-77
2021/04/17 06:09:21;;;;;;;13.78;12.18;;;;;;;2.77;83.65;96703.25;1761366;80;21207;-77
2021/04/17 06:11:47;;;;;;;15.75;14.10;;;;;;;2.75;83.57;96704.29;1753042;80;21092;-79
2021/04/17 06:14:13;;;;;;;16.73;14.95;;;;;;;2.78;83.85;96697.65;1733957;80;21226;-77
2021/04/17 06:16:39;;;;;;;15.78;14.18;;;;;;;2.87;83.96;96703.30;1743441;80;21178;-77
2021/04/17 06:19:06;;;;;;;15.38;13.28;;;;;;;2.90;83.85;96701.75;1743375;80;21117;-78
2021/04/17 06:21:32;;;;;;;13.68;12.28;;;;;;;3.00;83.85;96699.59;1754108;80;21100;-77
2021/04/17 06:23:58;;;;;;;13.25;11.70;;;;;;;3.10;83.72;96701.41;1744789;81;21105;-77
2021/04/17 06:26:24;;;;;;;16.73;15.03;;;;;;;3.21;83.75;96696.98;1748739;81;21093;-79
2021/04/17 06:28:50;;;;;;;16.87;15.10;;;;;;;3.30;83.55;96695.42;1728571;81;21101;-79
2021/04/17 06:31:17;;;;;;;17.50;15.80;;;;;;;3.39;83.55;96695.91;1752809;80;21076;-76
2021/04/17 06:33:43;;;;;;;17.90;15.65;;;;;;;3.50;83.51;96693.26;1746465;80;21308;-77
2021/04/17 06:36:09;;;;;;;16.10;14.28;;;;;;;3.61;83.40;96688.03;1758249;80;21097;-79
2021/04/17 06:38:35;;;;;;;15.32;13.48;;;;;;;3.69;82.90;96690.41;1750133;80;21120;-79
2021/04/17 06:41:02;;;;;;;16.17;14.55;;;;;;;3.76;82.96;96692.33;1747634;80;21121;-79
2021/04/17 06:43:30;;;;;;;20.30;18.23;;;;;;;3.79;82.50;96688.68;1757847;80;21101;-79
2021/04/17 06:45:58;;;;;;;17.12;15.43;;;;;;;3.87;82.67;96696.53;1741891;80;21081;-79
2021/04/17 06:48:24;;;;;;;15.25;13.75;;;;;;;3.92;82.65;96702.11;1757891;80;21240;-79
2021/04/17 06:50:50;;;;;;;16.73;14.93;;;;;;;3.94;82.45;96703.25;1743983;80;21466;-77
2021/04/17 06:53:18;;;;;;;17.40;15.48;;;;;;;3.95;82.37;96706.16;1739594;80;21312;-79
2021/04/17 06:55:52;;;;;;;16.37;14.68;;;;;;;3.94;82.15;96705.36;1759600;80;21089;-79
2021/04/17 06:58:19;;;;;;;14.58;13.08;;;;;;;3.90;81.95;96704.81;1761810;80;21104;-79
2021/04/17 07:00:48;;;;;;;16.23;14.13;;;;;;;3.89;81.78;96704.45;1750238;80;21266;-79
2021/04/17 07:03:16;;;;;;;15.98;13.58;;;;;;;3.94;81.87;96707.92;1754262;80;21522;-80
2021/04/17 07:05:45;;;;;;;15.88;14.18;;;;;;;3.97;81.63;96705.55;1762661;80;21089;-77
2021/04/17 07:08:11;;;;;;;17.40;14.53;;;;;;;3.98;81.70;96703.33;1765786;80;21501;-77
2021/04/17 07:10:37;;;;;;;17.90;16.00;;;;;;;3.97;81.72;96711.52;1755665;80;21117;-79
2021/04/17 07:13:12;;;;;;;19.32;14.73;;;;;;;4.00;81.88;96711.71;1752287;80;21113;-81
2021/04/17 07:15:41;;;;;;;16.57;13.48;;;;;;;4.00;81.66;96710.42;1805798;78;21225;-77
2021/04/17 07:21:18;;;;;;;18.02;14.73;;;;;;;4.19;81.76;96705.30;1761523;79;23039;-76
2021/04/17 07:23:47;;;;;;;15.88;13.38;;;;;;;4.20;81.33;96705.64;1748722;80;21118;-79
2021/04/17 07:26:18;;;;;;;16.73;13.65;;;;;;;4.24;81.08;96704.92;1739455;80;21130;-78
2021/04/17 07:29:01;;;;;;;14.70;12.80;;;;;;;4.25;81.08;96707.36;1664942;84;21102;-76
2021/04/17 07:31:29;;;;;;;17.70;14.43;;;;;;;4.28;81.03;96713.99;1694094;82;21297;-78
2021/04/17 07:33:56;;;;;;;17.00;14.13;;;;;;;4.29;81.17;96715.14;1697204;82;21264;-78
2021/04/17 07:36:22;;;;;;;16.90;15.20;;;;;;;4.29;81.01;96712.56;1698787;82;21118;-79
2021/04/17 07:38:48;;;;;;;18.20;15.88;;;;;;;4.31;81.02;96717.09;1689472;82;21125;-76
2021/04/17 07:41:19;;;;;;;17.48;15.58;;;;;;;4.33;80.90;96711.34;1696183;82;21771;-77
2021/04/17 07:44:02;;;;;;;18.12;15.72;;;;;;;4.30;80.73;96712.91;1698113;82;21133;-76
2021/04/17 07:46:43;;;;;;;17.20;15.03;;;;;;;4.32;80.81;96712.77;1698474;83;21121;-75
2021/04/17 07:49:21;;;;;;;16.27;14.58;;;;;;;4.28;80.60;96713.99;1702750;82;21110;-75
2021/04/17 07:52:10;;;;;;;18.65;15.40;;;;;;;4.20;80.47;96716.74;1693411;82;21159;-75
2021/04/17 07:55:00;;;;;;;17.80;15.93;;;;;;;4.14;80.46;96719.86;1704877;84;21150;-77
2021/04/17 07:57:43;;;;;;;18.70;15.60;;;;;;;4.13;80.58;96719.52;1694467;82;21271;-78
2021/04/17 08:00:10;;;;;;;;;;;;;;;4.17;80.67;96726.02;1689078;82;21211;-78
2021/04/17 08:02:37;;;;;;;19.57;16.93;;;;;;;4.19;80.53;96723.31;1725546;80;20208;-78
2021/04/17 08:05:04;;;;;;;18.87;16.77;;;;;;;4.21;80.61;96720.12;1736961;80;21106;-76
2021/04/17 08:07:33;;;;;;;19.45;15.98;;;;;;;4.20;80.65;96724.94;1729225;80;21598;-76
2021/04/17 08:09:59;;;;;;;18.62;15.48;;;;;;;4.21;80.80;96720.12;1735960;80;21090;-76
2021/04/17 08:12:25;;;;;;;19.12;16.32;;;;;;;4.26;80.76;96720.56;1738759;80;21109;-76
2021/04/17 08:14:52;;;;;;;20.72;17.17;;;;;;;4.24;80.34;96725.03;1730919;80;21224;-76
2021/04/17 08:17:19;;;;;;;18.70;16.17;;;;;;;4.22;80.18;96728.99;1735772;80;21100;-76
2021/04/17 08:19:45;;;;;;;21.17;18.15;;;;;;;4.21;80.46;96729.94;1720246;82;21126;-78
2021/04/17 08:22:13;;;;;;;21.52;18.23;;;;;;;4.26;80.50;96731.33;1720077;81;21105;-78
2021/04/17 08:24:45;;;;;;;21.10;17.75;;;;;;;4.27;80.47;96733.76;1704281;82;21341;-79
2021/04/17 08:27:11;;;;;;;21.68;18.02;;;;;;;4.30;80.49;96726.24;1735730;80;21452;-76
2021/04/17 08:29:56;;;;;;;21.15;18.23;;;;;;;4.28;80.46;96734.56;1746750;80;21090;-77
2021/04/17 08:32:40;;;;;;;18.12;15.90;;;;;;;4.24;80.29;96735.31;1722447;80;21102;-78
2021/04/17 08:35:23;;;;;;;18.92;16.65;;;;;;;4.24;80.19;96725.50;1733908;80;21123;-78
2021/04/17 08:38:03;;;;;;;18.77;16.57;;;;;;;4.28;80.22;96739.71;1740283;80;21061;-76
2021/04/17 08:40:48;;;;;;;21.95;17.37;;;;;;;4.31;80.46;96731.72;1723180;80;21106;-76
2021/04/17 08:43:21;;;;;;;19.65;16.82;;;;;;;4.33;80.30;96729.35;1739513;80;21075;-79
2021/04/17 08:46:08;;;;;;;23.60;18.48;;;;;;;4.35;80.43;96731.78;1728491;80;21119;-80
2021/04/17 08:48:58;;;;;;;19.87;17.52;;;;;;;4.39;80.51;96731.84;1726269;80;21252;-77
2021/04/17 08:51:34;;;;;;;21.68;18.05;;;;;;;4.48;80.55;96738.30;1725922;80;21323;-76
2021/04/17 08:54:09;;;;;;;21.35;19.12;;;;;;;4.55;80.25;96737.75;1724332;82;21110;-76
2021/04/17 08:56:57;;;;;;;20.40;18.23;;;;;;;4.57;80.09;96734.12;1727897;80;21125;-76
2021/04/17 08:59:37;;;;;;;19.85;17.75;;;;;;;4.55;79.92;96734.70;1733406;80;21102;-76
2021/04/17 09:02:11;;;;;;;20.08;17.15;;;;;;;4.52;79.99;96731.92;1728426;80;21098;-84
2021/04/17 09:05:08;;;;;;;22.93;18.32;;;;;;;4.50;79.96;96733.02;1719949;80;21266;-78
2021/04/17 09:07:37;;;;;;;20.27;18.07;;;;;;;4.47;80.08;96735.86;1732241;80;21462;-79
2021/04/17 09:10:34;;;;;;;20.90;18.45;;;;;;;4.47;80.03;96737.97;1739500;80;21118;-79
2021/04/17 09:13:17;;;;;;;22.07;18.25;;;;;;;4.44;79.89;96733.56;1733444;80;21071;-77
2021/04/17 09:16:03;;;;;;;22.87;19.40;;;;;;;4.50;79.97;96745.41;1723938;80;21107;-77
2021/04/17 09:18:38;;;;;;;22.13;19.77;;;;;;;4.61;80.14;96731.60;1736345;80;21118;-76
2021/04/17 09:21:22;;;;;;;23.30;18.75;;;;;;;4.66;79.98;96730.71;1726328;81;21099;-79
2021/04/17 09:23:53;;;;;;;22.07;19.40;;;;;;;4.72;79.87;96734.52;1726223;81;21110;-76
2021/04/17 09:26:39;;;;;;;25.77;22.52;;;;;;;4.71;79.84;96733.67;1714940;81;21095;-78
2021/04/17 09:29:22;;;;;;;23.83;18.10;;;;;;;4.73;79.88;96727.95;1727438;81;21072;-76
2021/04/17 09:31:50;;;;;;;23.32;20.12;;;;;;;4.70;79.51;96729.95;1735208;81;21245;-78
2021/04/17 09:34:17;;;;;;;24.00;20.90;;;;;;;4.74;79.58;96729.57;1720907;81;21071;-76
2021/04/17 09:36:44;;;;;;;25.97;22.05;;;;;;;4.83;79.78;96732.59;1713617;81;21097;-78
2021/04/17 09:39:31;;;;;;;26.82;21.68;;;;;;;4.95;79.82;96722.15;1722582;81;21285;-78
2021/04/17 09:42:00;;;;;;;27.87;23.50;;;;;;;5.00;79.48;96723.83;1717572;81;21142;-76
2021/04/17 09:44:28;;;;;;;29.90;24.15;;;;;;;4.97;79.30;96724.92;1724887;81;21107;-76
2021/04/17 09:47:14;;;;;;;30.88;24.15;;;;;;;4.93;79.20;96721.00;1688951;82;21094;-78
2021/04/17 09:49:43;;;;;;;27.98;21.52;;;;;;;4.91;79.25;96720.81;1720219;81;21225;-76
2021/04/17 09:52:11;;;;;;;27.13;20.70;;;;;;;4.97;79.13;96725.39;1721037;81;21377;-79
2021/04/17 09:54:39;;;;;;;26.65;22.25;;;;;;;4.97;78.84;96726.20;1719296;81;21099;-77
2021/04/17 09:57:09;;;;;;;24.75;20.10;;;;;;;5.06;78.90;96722.81;1721144;81;21244;-76
2021/04/17 09:59:36;;;;;;;32.48;29.23;;;;;;;5.12;78.66;96718.86;1716002;81;21261;-77
2021/04/17 10:02:02;;;;;;;28.30;23.02;;;;;;;5.11;78.52;96723.67;1718154;81;21095;-78
2021/04/17 10:04:58;;;;;;;22.10;19.73;;;;;;;5.07;78.58;96724.91;1719153;81;21095;-78
2021/04/17 10:07:23;;;;;;;28.95;24.02;;;;;;;5.02;78.37;96720.62;1716236;81;21095;-78
2021/04/17 10:10:06;;;;;;;27.27;21.40;;;;;;;4.97;78.67;96722.34;1720759;81;21322;-76
2021/04/17 10:12:32;;;;;;;25.30;21.50;;;;;;;5.07;78.75;96722.34;1718067;81;21123;-78
2021/04/17 10:15:21;;;;;;;24.92;20.45;;;;;;;5.26;78.99;96726.14;1717283;81;21214;-79
2021/04/17 10:17:49;;;;;;;28.80;22.55;;;;;;;5.45;78.62;96729.13;1722193;81;21095;-78
2021/04/17 10:20:15;;;;;;;27.87;23.42;;;;;;;5.53;78.35;96724.55;1735418;80;21118;-79
2021/04/17 10:22:54;;;;;;;26.57;23.15;;;;;;;5.56;78.28;96726.86;1709146;82;21236;-78
2021/04/17 10:25:42;;;;;;;26.17;21.93;;;;;;;5.48;77.88;96727.55;1743255;80;21126;-78
2021/04/17 10:28:17;;;;;;;27.67;22.98;;;;;;;5.37;78.08;96716.97;1733705;80;21106;-78
2021/04/17 10:30:46;;;;;;;30.48;23.67;;;;;;;5.33;78.12;96720.75;1732109;80;21313;-78
2021/04/17 10:33:18;;;;;;;29.07;22.37;;;;;;;5.28;77.98;96722.95;1733689;80;21118;-78
2021/04/17 10:36:09;;;;;;;27.45;23.40;;;;;;;5.22;77.92;96720.95;1736600;80;21122;-80
2021/04/17 10:38:37;;;;;;;23.05;20.12;;;;;;;5.20;77.93;96724.59;1735971;80;21137;-78
2021/04/17 10:41:03;;;;;;;28.52;24.25;;;;;;;5.20;77.88;96721.53;1735126;80;21082;-78
2021/04/17 10:43:29;;;;;;;31.95;25.97;;;;;;;5.22;78.26;96722.23;1717655;80;21114;-78
2021/04/17 10:45:58;;;;;;;27.35;22.50;;;;;;;5.34;78.59;96723.66;1733441;80;21110;-78
2021/04/17 10:48:24;;;;;;;28.12;22.52;;;;;;;5.40;78.01;96719.26;1733455;80;21118;-78
2021/04/17 10:51:03;;;;;;;27.98;21.75;;;;;;;5.39;78.04;96725.36;1736064;80;21093;-78
2021/04/17 10:53:38;;;;;;;27.58;23.02;;;;;;;5.42;77.91;96716.05;1740328;82;21113;-78
2021/04/17 10:56:14;;;;;;;26.07;21.60;;;;;;;5.47;77.89;96722.06;1727300;80;21106;-76
2021/04/17 10:58:40;;;;;;;28.07;23.65;;;;;;;5.49;77.78;96721.92;1739176;80;21107;-76
2021/04/17 11:01:13;;;;;;;25.75;22.00;;;;;;;5.52;77.79;96722.92;1744800;80;21117;-78
2021/04/17 11:03:46;;;;;;;26.90;23.62;;;;;;;5.47;77.69;96723.83;1735939;82;21110;-76
2021/04/17 11:06:20;;;;;;;26.42;23.38;;;;;;;5.43;77.89;96718.97;1749766;82;21224;-77
2021/04/17 11:08:47;;;;;;;30.02;24.92;;;;;;;5.41;77.73;96727.32;1740431;80;21106;-78
2021/04/17 11:11:18;;;;;;;25.37;22.67;;;;;;;5.36;77.65;96720.94;1744134;82;21106;-77
2021/04/17 11:13:44;;;;;;;24.25;21.62;;;;;;;5.27;77.41;96722.61;1728985;80;21126;-76
2021/04/17 11:16:12;;;;;;;25.17;21.73;;;;;;;5.17;77.27;96724.39;1700473;82;21275;-78
2021/04/17 11:18:43;;;;;;;27.37;22.65;;;;;;;5.04;77.39;96722.59;1725357;80;21094;-78
2021/04/17 11:21:15;;;;;;;29.20;23.87;;;;;;;4.96;77.60;96716.86;1728769;81;21119;-79
2021/04/17 11:24:02;;;;;;;;;;;;;;;5.01;78.13;96715.95;1731170;81;21091;-79
2021/04/17 11:26:28;;;;;;;33.58;27.15;;;;;;;5.03;78.20;96714.05;1718702;81;20192;-79
2021/04/17 11:28:57;;;;;;;48.38;35.60;;;;;;;5.11;78.25;96717.23;1723951;81;21244;-80
2021/04/17 11:31:30;;;;;;;50.85;37.78;;;;;;;5.10;77.95;96715.14;1732247;81;21269;-77
2021/04/17 11:33:59;;;;;;;59.27;42.05;;;;;;;5.20;78.18;96718.95;1724719;81;21406;-75
2021/04/17 11:36:27;;;;;;;185.57;85.05;;;;;;;5.27;78.11;96723.91;1719627;82;21129;-75
2021/04/17 11:38:54;;;;;;;98.50;59.98;;;;;;;5.35;78.07;96726.58;1722412;81;21334;-76
2021/04/17 11:41:20;;;;;;;108.40;69.92;;;;;;;5.39;78.06;96724.08;1686177;84;21082;-75
2021/04/17 11:43:46;;;;;;;161.15;97.50;;;;;;;5.51;78.01;96727.74;1686484;83;21324;-76
2021/04/17 11:46:13;;;;;;;264.08;134.30;;;;;;;5.54;77.76;96728.77;1686562;83;21141;-76